Time;durP1;ratioP1;P1;durP2;ratioP2;P2;SDS_P1;SDS_P2;PMS_P1;PMS_P2;Temp;Humidity;BMP_temperature;BMP_pressure;BME280_temperature;BME280_humidity;BME280_pressure;Samples;Min_cycle;Max_cycle;Signal;HPM_P1;HPM_P2
2022/07/10 05:01:33;;;;;;;9.10;5.60;;;16.50;99.90;;;;;;5932587;23;20035;31
2022/07/10 05:03:58;;;;;;;11.00;6.10;;;16.60;99.90;;;;;;4902152;29;20112;-75
2022/07/10 05:06:24;;;;;;;9.20;6.00;;;16.70;99.90;;;;;;4909260;29;20175;-75
2022/07/10 05:08:50;;;;;;;8.80;6.47;;;16.70;99.90;;;;;;4909557;29;20314;-75
2022/07/10 05:11:16;;;;;;;6.88;5.30;;;16.80;99.90;;;;;;4908069;29;20100;-75
2022/07/10 05:13:48;;;;;;;6.20;4.97;;;16.90;99.90;;;;;;4908240;29;20260;-75
2022/07/10 05:16:14;;;;;;;6.95;4.93;;;17.00;99.90;;;;;;4908506;29;20063;-74
2022/07/10 05:18:40;;;;;;;8.65;4.85;;;17.10;99.90;;;;;;4909756;29;20118;-75
2022/07/10 05:21:07;;;;;;;8.25;4.93;;;17.10;99.90;;;;;;4909514;29;20256;-75
2022/07/10 05:23:33;;;;;;;8.73;4.55;;;17.10;99.90;;;;;;4909407;29;20321;-75
2022/07/10 05:25:59;;;;;;;7.75;3.70;;;17.20;99.90;;;;;;4909271;29;20039;-75
2022/07/10 05:28:24;;;;;;;6.07;3.67;;;17.20;99.90;;;;;;4892238;29;20033;-75
2022/07/10 05:30:50;;;;;;;6.45;3.17;;;17.20;99.90;;;;;;4909188;29;20036;-75
2022/07/10 05:33:17;;;;;;;6.55;3.88;;;16.90;99.90;;;;;;4912079;29;20032;-75
2022/07/10 05:35:43;;;;;;;6.60;3.63;;;16.90;99.90;;;;;;4916955;29;20029;-75
2022/07/10 05:38:08;;;;;;;5.07;3.45;;;16.80;99.90;;;;;;4900133;29;20036;-75
2022/07/10 05:40:34;;;;;;;6.30;3.45;;;16.80;99.90;;;;;;4898624;29;20032;-76
2022/07/10 05:43:00;;;;;;;4.57;3.00;;;16.80;99.90;;;;;;4896805;29;20048;-77
2022/07/10 05:45:26;;;;;;;7.93;3.05;;;16.90;99.90;;;;;;4908231;29;20040;-75
2022/07/10 05:47:52;;;;;;;7.82;3.20;;;17.00;99.90;;;;;;4909256;29;20040;-76
2022/07/10 05:50:18;;;;;;;5.88;2.90;;;17.10;99.90;;;;;;4908815;29;20188;-76
2022/07/10 05:52:43;;;;;;;5.28;2.92;;;17.30;99.90;;;;;;4892450;29;20036;-78
2022/07/10 05:55:09;;;;;;;5.68;2.70;;;17.40;99.80;;;;;;4908109;29;20119;-75
2022/07/10 05:57:36;;;;;;;3.67;2.33;;;17.70;98.00;;;;;;4908540;29;20207;-75
2022/07/10 06:00:06;;;;;;;5.35;2.65;;;18.00;96.30;;;;;;4908701;29;20121;-74
2022/07/10 06:02:37;;;;;;;5.68;2.30;;;18.10;95.90;;;;;;4897801;29;20080;-74
2022/07/10 06:05:03;;;;;;;4.55;1.90;;;18.30;95.40;;;;;;4890158;29;20354;-78
2022/07/10 06:07:29;;;;;;;4.63;1.70;;;18.40;94.70;;;;;;4889521;29;20045;-77
2022/07/10 06:09:55;;;;;;;4.95;1.73;;;18.50;93.30;;;;;;4889692;29;20032;-74
2022/07/10 06:12:21;;;;;;;4.65;1.90;;;18.40;92.80;;;;;;4889200;29;20058;-77
2022/07/10 06:14:47;;;;;;;4.70;1.80;;;18.30;92.40;;;;;;4889861;29;20052;-76
2022/07/10 06:17:13;;;;;;;3.55;1.60;;;18.30;92.50;;;;;;4888944;29;20045;-76
2022/07/10 06:19:39;;;;;;;4.18;1.98;;;18.30;92.70;;;;;;4889494;29;20033;-76
2022/07/10 06:24:49;;;;;;;5.53;2.00;;;18.40;91.50;;;;;;4873161;29;20041;-75
2022/07/10 06:27:14;;;;;;;4.78;1.70;;;18.50;91.60;;;;;;4889316;29;20109;-74
2022/07/10 06:29:40;;;;;;;4.55;1.45;;;18.50;91.70;;;;;;4873098;29;20161;-75
2022/07/10 06:32:06;;;;;;;4.95;1.90;;;18.40;91.40;;;;;;4888895;29;20100;-75
2022/07/10 06:34:32;;;;;;;3.30;1.52;;;18.40;91.80;;;;;;4888344;29;20064;-75
2022/07/10 06:36:58;;;;;;;4.28;1.92;;;18.60;91.90;;;;;;4872786;29;20040;-75
2022/07/10 06:39:24;;;;;;;4.25;1.80;;;18.70;91.60;;;;;;4888743;29;20039;-75
2022/07/10 06:41:49;;;;;;;3.67;1.77;;;18.60;91.70;;;;;;4889243;29;20028;-75
2022/07/10 06:44:15;;;;;;;4.85;2.03;;;18.60;91.70;;;;;;4888781;29;20066;-75
2022/07/10 06:46:41;;;;;;;4.78;1.90;;;18.70;91.20;;;;;;4888688;29;20051;-75
2022/07/10 06:49:08;;;;;;;6.07;2.00;;;18.80;91.00;;;;;;4889328;29;20035;-77
2022/07/10 06:51:34;;;;;;;2.67;1.40;;;18.80;90.60;;;;;;4872254;29;20025;-75
2022/07/10 06:54:00;;;;;;;3.75;1.45;;;18.80;89.50;;;;;;4872605;29;20298;-76
2022/07/10 06:56:27;;;;;;;5.20;1.50;;;19.00;89.10;;;;;;4888527;29;20024;-76
2022/07/10 06:58:52;;;;;;;4.38;1.63;;;19.00;87.70;;;;;;4889471;29;20096;-75
2022/07/10 07:01:18;;;;;;;3.88;1.27;;;19.10;87.10;;;;;;4888293;29;20048;-76
2022/07/10 07:03:44;;;;;;;4.28;1.83;;;19.30;87.40;;;;;;4891130;29;20052;-76
2022/07/10 07:06:10;;;;;;;4.47;1.42;;;19.40;86.80;;;;;;4907487;29;20036;-75
2022/07/10 07:08:36;;;;;;;3.47;1.50;;;19.40;86.70;;;;;;4907002;29;20051;-75
2022/07/10 07:11:02;;;;;;;4.70;1.30;;;19.60;85.50;;;;;;4907608;29;20024;-74
2022/07/10 07:13:28;;;;;;;3.67;1.30;;;19.60;83.90;;;;;;4907184;29;20051;-76
2022/07/10 07:16:00;;;;;;;3.55;1.40;;;19.70;84.00;;;;;;4906765;29;20040;-77
2022/07/10 07:18:37;;;;;;;6.22;1.42;;;19.70;84.80;;;;;;4890391;29;20029;-76
2022/07/10 07:23:47;;;;;;;3.38;1.60;;;19.70;82.60;;;;;;4907385;29;20314;-77
2022/07/10 07:26:13;;;;;;;4.18;1.70;;;19.70;83.20;;;;;;4907306;29;20097;-77
2022/07/10 07:28:39;;;;;;;3.55;1.17;;;19.60;83.60;;;;;;4905935;29;20092;-77
2022/07/10 07:31:05;;;;;;;3.35;1.30;;;19.60;83.90;;;;;;4889908;29;20051;-77
2022/07/10 07:33:30;;;;;;;4.07;1.30;;;19.60;84.90;;;;;;4890186;29;20032;-75
2022/07/10 07:35:56;;;;;;;3.30;1.27;;;19.50;82.30;;;;;;4907479;29;20082;-77
2022/07/10 07:38:22;;;;;;;2.95;1.10;;;19.30;82.20;;;;;;4906709;29;20341;-75
2022/07/10 07:40:48;;;;;;;4.85;1.35;;;19.20;82.20;;;;;;4907232;29;20081;-76
2022/07/10 07:43:14;;;;;;;3.38;1.30;;;19.20;82.30;;;;;;4890526;29;20273;-75
2022/07/10 07:45:40;;;;;;;5.93;1.35;;;19.00;82.80;;;;;;4905321;29;20044;-76
2022/07/10 07:48:05;;;;;;;3.83;1.30;;;18.90;83.60;;;;;;4906873;29;20039;-74
2022/07/10 07:50:33;;;;;;;2.95;1.30;;;18.90;83.50;;;;;;4906877;29;20092;-76
2022/07/10 07:53:12;;;;;;;4.37;1.33;;;18.80;84.20;;;;;;4906792;29;20040;-76
2022/07/10 07:55:47;;;;;;;3.28;1.40;;;18.90;84.30;;;;;;4890285;29;20428;-76
2022/07/10 07:58:12;;;;;;;4.00;1.38;;;19.00;84.20;;;;;;4906037;29;20033;-80
2022/07/10 08:00:38;;;;;;;5.47;1.50;;;19.10;84.50;;;;;;4906032;29;20233;-76
2022/07/10 08:03:04;;;;;;;4.13;1.63;;;19.30;83.50;;;;;;4906770;29;20056;-74
2022/07/10 08:05:30;;;;;;;3.90;1.38;;;19.40;83.00;;;;;;4906848;29;20031;-78
2022/07/10 08:08:08;;;;;;;2.38;1.00;;;19.60;81.80;;;;;;4908819;29;20028;-78
2022/07/10 08:10:38;;;;;;;2.65;1.02;;;19.90;81.00;;;;;;4888628;29;20044;-77
2022/07/10 08:13:08;;;;;;;3.03;1.10;;;20.10;79.60;;;;;;4906166;29;20326;-77
2022/07/10 08:15:37;;;;;;;5.63;1.27;;;20.20;79.50;;;;;;4906504;29;20144;-77
2022/07/10 08:18:10;;;;;;;3.60;1.00;;;20.30;79.70;;;;;;4906926;29;20130;-76
2022/07/10 08:20:35;;;;;;;3.53;1.15;;;20.50;79.90;;;;;;4906271;29;20025;-76
2022/07/10 08:23:01;;;;;;;4.80;1.50;;;20.40;79.40;;;;;;4905577;29;20035;-77
2022/07/10 08:25:52;;;;;;;3.75;1.35;;;20.40;78.90;;;;;;4906997;29;20041;-77
2022/07/10 08:28:21;;;;;;;3.55;1.00;;;20.40;79.30;;;;;;4889940;29;20086;-76
2022/07/10 08:30:50;;;;;;;4.72;0.90;;;20.40;79.10;;;;;;4906602;29;20095;-76
2022/07/10 08:33:16;;;;;;;4.35;1.20;;;20.50;77.60;;;;;;4907556;29;20107;-76
2022/07/10 08:35:42;;;;;;;3.88;0.88;;;20.40;78.40;;;;;;4906672;29;20035;-77
2022/07/10 08:38:08;;;;;;;3.20;1.23;;;20.50;77.20;;;;;;4890330;29;20029;-75
2022/07/10 08:40:36;;;;;;;2.67;1.00;;;20.30;77.10;;;;;;4906562;29;20032;-76
2022/07/10 08:43:02;;;;;;;3.08;0.88;;;20.10;77.80;;;;;;4907453;29;20100;-78
2022/07/10 08:45:33;;;;;;;4.15;1.30;;;20.10;78.30;;;;;;4904464;29;20040;-77
2022/07/10 08:48:03;;;;;;;3.97;1.25;;;20.40;77.90;;;;;;4890171;29;20090;-77
2022/07/10 08:50:31;;;;;;;4.20;0.98;;;20.70;77.20;;;;;;4906289;29;20115;-75
2022/07/10 08:53:04;;;;;;;4.47;1.33;;;21.10;74.80;;;;;;4896667;29;20270;-77
2022/07/10 08:55:30;;;;;;;3.15;1.13;;;21.20;72.70;;;;;;4904939;29;20055;-79
2022/07/10 08:57:56;;;;;;;4.57;1.30;;;21.10;72.50;;;;;;4905044;29;20184;-79
2022/07/10 09:00:23;;;;;;;4.88;1.27;;;21.10;73.20;;;;;;4904120;29;20272;-77
2022/07/10 09:02:49;;;;;;;4.18;1.00;;;21.20;73.20;;;;;;4906818;29;20041;-76
2022/07/10 09:05:15;;;;;;;2.83;0.82;;;21.20;72.20;;;;;;4909763;29;20028;-77
2022/07/10 09:07:43;;;;;;;5.07;1.00;;;21.40;72.50;;;;;;4892499;29;20036;-76
2022/07/10 09:10:11;;;;;;;3.53;1.38;;;21.40;72.40;;;;;;4909556;29;20214;-77
2022/07/10 09:12:56;;;;;;;3.45;0.95;;;21.20;72.30;;;;;;4892277;29;20104;-76
2022/07/10 09:15:27;;;;;;;3.33;0.90;;;21.10;73.50;;;;;;4889062;29;20457;-77
2022/07/10 09:17:55;;;;;;;2.33;0.73;;;21.30;72.40;;;;;;4892774;29;20035;-77
2022/07/10 09:20:40;;;;;;;5.35;1.10;;;21.60;71.30;;;;;;4908816;29;20195;-76
2022/07/10 09:23:20;;;;;;;4.40;1.00;;;21.80;70.10;;;;;;4908419;29;20035;-75
2022/07/10 09:25:51;;;;;;;2.80;0.80;;;21.60;70.20;;;;;;4910225;29;20029;-76
2022/07/10 09:28:20;;;;;;;3.53;0.63;;;21.20;71.50;;;;;;4909307;29;20036;-76
2022/07/10 09:30:47;;;;;;;3.13;0.90;;;21.40;71.00;;;;;;4911347;29;20322;-76
2022/07/10 09:33:25;;;;;;;2.28;0.73;;;21.80;70.10;;;;;;4913955;29;20056;-75
2022/07/10 09:36:05;;;;;;;2.80;0.65;;;22.20;67.80;;;;;;4898666;29;20040;-76
2022/07/10 09:38:43;;;;;;;4.47;0.82;;;22.30;67.90;;;;;;4917146;29;20227;-75
2022/07/10 09:41:25;;;;;;;2.58;0.77;;;22.70;66.80;;;;;;4910346;29;20024;-77
2022/07/10 09:43:56;;;;;;;5.68;0.82;;;22.60;66.00;;;;;;4892864;29;20063;-76
2022/07/10 09:46:36;;;;;;;3.40;0.90;;;22.20;66.50;;;;;;4909384;29;20100;-76
2022/07/10 09:49:09;;;;;;;2.75;0.90;;;22.30;67.50;;;;;;4910618;29;20283;-78
2022/07/10 09:51:40;;;;;;;1.85;0.60;;;22.20;66.50;;;;;;4909095;29;20322;-79
2022/07/10 09:54:09;;;;;;;2.58;0.82;;;22.00;66.80;;;;;;4909577;29;20056;-76
2022/07/10 09:56:46;;;;;;;3.20;0.80;;;22.30;66.40;;;;;;4892042;29;20016;-76
2022/07/10 09:59:14;;;;;;;2.70;0.65;;;22.20;66.90;;;;;;4909523;29;20033;-77
2022/07/10 10:01:48;;;;;;;3.53;0.85;;;22.30;66.60;;;;;;4906918;29;20049;-78
2022/07/10 10:04:19;;;;;;;4.13;0.90;;;22.10;67.50;;;;;;4909515;29;20045;-76
2022/07/10 10:06:56;;;;;;;3.83;0.90;;;22.40;66.90;;;;;;4891639;29;20040;-79
2022/07/10 10:09:32;;;;;;;3.45;0.73;;;22.50;65.10;;;;;;4891988;29;20321;-74
2022/07/10 10:12:06;;;;;;;4.03;1.13;;;22.40;65.40;;;;;;4909307;29;20032;-75
2022/07/10 10:14:37;;;;;;;2.50;0.63;;;22.70;65.50;;;;;;4891943;29;20039;-77
2022/07/10 10:17:07;;;;;;;2.88;0.57;;;22.70;64.80;;;;;;4908379;29;20044;-75
2022/07/10 10:22:19;;;;;;;4.20;1.00;;;22.40;65.80;;;;;;4908152;29;20078;-76
2022/07/10 10:24:46;;;;;;;4.82;0.93;;;22.40;65.00;;;;;;4905974;29;20040;-76
2022/07/10 10:27:13;;;;;;;3.28;0.80;;;22.50;65.40;;;;;;4907617;29;20250;-76
2022/07/10 10:29:40;;;;;;;1.85;0.75;;;22.60;64.80;;;;;;4890449;29;20032;-77
2022/07/10 10:32:11;;;;;;;3.63;0.93;;;22.90;64.60;;;;;;4905888;29;20338;-76
2022/07/10 10:34:42;;;;;;;2.20;0.80;;;23.00;63.30;;;;;;4906979;29;20315;-76
2022/07/10 10:37:33;;;;;;;3.53;0.93;;;22.70;64.40;;;;;;4891714;29;20063;-78
2022/07/10 10:39:59;;;;;;;3.40;0.77;;;22.70;64.80;;;;;;4892073;29;20210;-76
2022/07/10 10:42:47;;;;;;;4.45;0.85;;;22.00;65.80;;;;;;4908760;29;20075;-75
2022/07/10 10:45:22;;;;;;;2.33;0.88;;;21.80;67.20;;;;;;4891711;29;20092;-76
2022/07/10 10:48:05;;;;;;;3.55;0.90;;;21.90;66.30;;;;;;4885056;29;20050;-78
2022/07/10 10:50:51;;;;;;;2.13;1.00;;;21.80;66.10;;;;;;4889470;29;20059;-76
2022/07/10 10:53:17;;;;;;;2.08;0.70;;;21.70;66.60;;;;;;4890118;29;20063;-75
2022/07/10 10:56:07;;;;;;;3.80;0.80;;;21.70;67.90;;;;;;4911382;29;20028;-75
2022/07/10 10:58:44;;;;;;;4.15;0.85;;;21.80;67.60;;;;;;4894815;29;20041;-76
2022/07/10 11:01:25;;;;;;;4.13;0.80;;;21.90;66.00;;;;;;4921898;29;20051;-76
2022/07/10 11:04:05;;;;;;;2.78;0.70;;;22.20;65.20;;;;;;4924415;29;20048;-76
2022/07/10 11:06:42;;;;;;;1.98;0.70;;;22.60;64.40;;;;;;4930700;29;20039;-76
2022/07/10 11:09:27;;;;;;;3.33;0.82;;;22.80;64.50;;;;;;4925352;29;20049;-78
2022/07/10 11:12:12;;;;;;;2.05;0.70;;;22.50;65.60;;;;;;4890515;29;20040;-81
2022/07/10 11:14:47;;;;;;;2.88;1.00;;;21.90;65.20;;;;;;4887696;29;20037;-80
2022/07/10 11:17:13;;;;;;;2.60;0.70;;;21.70;65.80;;;;;;4887256;29;20040;-78
2022/07/10 11:19:39;;;;;;;2.42;0.82;;;21.80;65.00;;;;;;4887419;29;20039;-76
2022/07/10 11:22:24;;;;;;;3.38;0.75;;;22.00;63.80;;;;;;4887642;29;20236;-78
2022/07/10 11:25:28;;;;;;;3.20;0.65;;;22.50;63.60;;;;;;4887195;29;20204;-77
2022/07/10 11:28:12;;;;;;;3.25;1.15;;;22.90;62.80;;;;;;4887100;29;20153;-77
2022/07/10 11:30:46;;;;;;;3.15;0.70;;;23.20;62.30;;;;;;4887088;29;20044;-78
2022/07/10 11:33:13;;;;;;;4.47;0.68;;;22.90;63.60;;;;;;4907183;29;20028;-76
2022/07/10 11:35:42;;;;;;;2.72;0.70;;;22.60;64.30;;;;;;4906112;29;20056;-77
2022/07/10 11:38:08;;;;;;;1.73;0.60;;;22.60;63.90;;;;;;4906970;29;20041;-75
2022/07/10 11:40:39;;;;;;;2.55;0.68;;;23.00;63.50;;;;;;4905983;29;20062;-78
2022/07/10 11:43:14;;;;;;;3.00;0.70;;;23.40;62.00;;;;;;4889697;29;20032;-78
2022/07/10 11:45:47;;;;;;;4.72;0.93;;;24.30;59.00;;;;;;4887718;29;20060;-76
2022/07/10 11:48:25;;;;;;;2.85;0.57;;;24.90;57.30;;;;;;4905793;29;20243;-75
2022/07/10 11:50:54;;;;;;;3.03;0.60;;;26.00;57.20;;;;;;4907310;29;20044;-74
2022/07/10 11:53:30;;;;;;;3.05;0.60;;;26.60;55.90;;;;;;4906529;29;20040;-76
2022/07/10 11:55:56;;;;;;;2.33;0.50;;;26.30;56.10;;;;;;4872687;29;20378;-76
2022/07/10 11:58:36;;;;;;;2.00;0.68;;;26.50;55.90;;;;;;4906952;29;20036;-75
2022/07/10 12:01:14;;;;;;;2.92;0.45;;;27.80;54.30;;;;;;4906189;29;20044;-78
2022/07/10 12:03:43;;;;;;;2.10;0.50;;;29.00;53.20;;;;;;4872303;29;20129;-78
2022/07/10 12:06:16;;;;;;;3.47;0.47;;;29.50;52.70;;;;;;4871755;29;20036;-74
2022/07/10 12:08:46;;;;;;;1.92;0.50;;;29.80;51.70;;;;;;4888156;29;20074;-78
2022/07/10 12:11:16;;;;;;;1.83;0.65;;;31.10;50.90;;;;;;4871762;29;20104;-76
2022/07/10 12:13:51;;;;;;;2.72;0.50;;;31.70;49.30;;;;;;4871453;29;20048;-77
2022/07/10 12:16:26;;;;;;;2.38;0.50;;;31.80;48.50;;;;;;4887056;29;20041;-78
2022/07/10 12:18:52;;;;;;;3.35;0.63;;;31.70;48.30;;;;;;4885743;29;20037;-77
2022/07/10 12:21:18;;;;;;;2.20;0.63;;;31.70;47.10;;;;;;4887209;29;20088;-75
2022/07/10 12:23:48;;;;;;;3.03;0.30;;;31.60;47.30;;;;;;4886858;29;20041;-78
2022/07/10 12:26:17;;;;;;;2.67;0.93;;;30.80;48.10;;;;;;4887117;29;20036;-76
2022/07/10 12:28:58;;;;;;;2.05;0.50;;;29.00;49.90;;;;;;4886334;29;20069;-76
2022/07/10 12:31:27;;;;;;;1.48;0.40;;;27.80;51.50;;;;;;4892280;29;20037;-76
2022/07/10 12:34:01;;;;;;;;;;;28.30;51.90;;;;;;4909488;29;20346;-76
2022/07/10 12:36:51;;;;;;;4.13;0.68;;;30.00;49.40;;;;;;4909491;29;19915;-76
2022/07/10 12:39:24;;;;;;;7.35;0.57;;;31.60;47.90;;;;;;4909836;29;20060;-78
2022/07/10 12:42:02;;;;;;;2.13;0.60;;;32.10;46.60;;;;;;4899644;29;20040;-74
2022/07/10 12:44:40;;;;;;;2.83;0.50;;;32.70;46.00;;;;;;4866645;29;20037;-76
2022/07/10 12:47:12;;;;;;;4.70;0.40;;;33.50;45.30;;;;;;4889641;29;20112;-76
2022/07/10 12:49:57;;;;;;;1.70;0.35;;;34.00;44.50;;;;;;4890097;29;20033;-76
2022/07/10 12:52:34;;;;;;;1.33;0.30;;;35.20;43.60;;;;;;4890687;29;20044;-76
2022/07/10 12:55:25;;;;;;;2.20;0.40;;;35.70;43.40;;;;;;4890573;29;20037;-75
2022/07/10 12:57:57;;;;;;;1.08;0.22;;;36.20;43.30;;;;;;4870514;29;20048;-77
2022/07/10 13:00:31;;;;;;;1.65;0.38;;;36.90;43.00;;;;;;4889979;29;20090;-75
2022/07/10 13:03:05;;;;;;;1.23;0.30;;;35.50;42.70;;;;;;4889965;29;20087;-77
2022/07/10 13:05:42;;;;;;;2.55;0.38;;;35.20;43.60;;;;;;4890041;29;20037;-75
2022/07/10 13:08:15;;;;;;;1.52;0.40;;;35.30;43.10;;;;;;4890380;29;20111;-76
2022/07/10 13:10:47;;;;;;;2.20;0.52;;;35.60;42.60;;;;;;4873298;29;20072;-79
2022/07/10 13:13:13;;;;;;;1.15;0.30;;;35.80;42.40;;;;;;4890294;29;20032;-76
2022/07/10 13:15:40;;;;;;;2.30;0.40;;;36.80;42.00;;;;;;4872518;29;20045;-78
2022/07/10 13:18:07;;;;;;;0.73;0.20;;;37.40;41.80;;;;;;4889935;29;20091;-76
2022/07/10 13:20:33;;;;;;;3.13;0.30;;;37.60;41.10;;;;;;4889683;29;20337;-76
2022/07/10 13:22:59;;;;;;;2.10;0.40;;;37.60;41.30;;;;;;4889857;29;20037;-78
2022/07/10 13:25:25;;;;;;;3.88;0.40;;;37.70;41.20;;;;;;4889660;29;20040;-78
2022/07/10 13:27:51;;;;;;;3.63;0.45;;;37.70;40.90;;;;;;4870367;29;20065;-76
2022/07/10 13:30:17;;;;;;;2.50;0.70;;;38.60;41.10;;;;;;4870512;29;20045;-78
2022/07/10 13:32:46;;;;;;;1.90;0.40;;;38.60;41.10;;;;;;4870994;29;20041;-75
2022/07/10 13:35:12;;;;;;;2.05;0.50;;;39.90;40.00;;;;;;4870778;29;20036;-76
2022/07/10 13:37:37;;;;;;;2.80;0.50;;;39.30;39.80;;;;;;4871141;29;20215;-74
2022/07/10 13:40:04;;;;;;;1.50;0.20;;;39.40;39.80;;;;;;4871683;29;20113;-77
2022/07/10 13:42:29;;;;;;;2.58;0.52;;;39.00;40.00;;;;;;4879460;29;20043;-76
2022/07/10 13:44:55;;;;;;;3.25;0.47;;;39.00;39.80;;;;;;4888184;29;20041;-77
2022/07/10 13:47:21;;;;;;;2.25;0.47;;;38.40;40.40;;;;;;4873121;29;20092;-76
2022/07/10 13:49:47;;;;;;;1.52;0.50;;;37.00;41.30;;;;;;4889307;29;20021;-75
2022/07/10 13:52:12;;;;;;;1.85;0.40;;;36.00;42.30;;;;;;4890227;29;20303;-75
2022/07/10 13:54:38;;;;;;;2.13;0.43;;;37.40;42.10;;;;;;4888947;29;20041;-76
2022/07/10 13:57:07;;;;;;;2.88;0.50;;;39.10;40.70;;;;;;4890069;29;20363;-81
2022/07/10 13:59:33;;;;;;;1.45;0.30;;;39.60;40.10;;;;;;4890034;29;20313;-75
2022/07/10 14:01:58;;;;;;;1.70;0.32;;;39.70;39.80;;;;;;4894394;29;20052;-74
2022/07/10 14:04:24;;;;;;;1.95;0.32;;;40.00;39.40;;;;;;4903105;29;20064;-75
2022/07/10 14:06:50;;;;;;;2.42;0.50;;;40.80;39.00;;;;;;4907667;29;20037;-77
2022/07/10 14:09:16;;;;;;;2.40;0.43;;;41.00;38.80;;;;;;4908328;29;20020;-74
2022/07/10 14:11:44;;;;;;;3.10;0.50;;;40.10;39.20;;;;;;4907994;29;20035;-76
2022/07/10 14:14:11;;;;;;;3.42;0.40;;;39.60;39.70;;;;;;4907838;29;20039;-76
2022/07/10 14:16:36;;;;;;;1.95;0.40;;;39.50;40.00;;;;;;4899345;29;20044;-75
2022/07/10 14:19:02;;;;;;;3.70;0.60;;;38.70;40.30;;;;;;4888763;29;20037;-75
2022/07/10 14:21:28;;;;;;;1.98;0.35;;;38.90;39.90;;;;;;4888946;29;20043;-74
2022/07/10 14:23:56;;;;;;;1.58;0.25;;;38.70;39.60;;;;;;4887528;29;20036;-76
2022/07/10 14:26:22;;;;;;;1.80;0.20;;;38.80;39.50;;;;;;4872188;29;20141;-74
2022/07/10 14:28:48;;;;;;;1.25;0.30;;;38.60;39.60;;;;;;4869885;29;20027;-74
2022/07/10 14:31:14;;;;;;;1.70;0.30;;;39.20;39.40;;;;;;4853689;29;20041;-76
2022/07/10 14:33:40;;;;;;;1.52;0.20;;;38.90;39.00;;;;;;4853544;29;20033;-75
2022/07/10 14:36:06;;;;;;;1.95;0.30;;;38.70;39.40;;;;;;4871075;29;20038;-74
2022/07/10 14:38:32;;;;;;;1.95;0.68;;;37.90;40.50;;;;;;4870318;29;20017;-76
2022/07/10 14:40:59;;;;;;;2.72;0.40;;;36.90;40.80;;;;;;4870440;29;20033;-75
2022/07/10 14:43:25;;;;;;;4.18;0.57;;;36.30;41.30;;;;;;4851236;29;20025;-76
2022/07/10 14:45:51;;;;;;;1.70;0.30;;;36.40;41.10;;;;;;4851470;29;20049;-74
2022/07/10 14:48:17;;;;;;;4.18;0.98;;;36.90;41.40;;;;;;4852313;29;20034;-74
2022/07/10 14:50:43;;;;;;;1.88;0.32;;;38.30;40.50;;;;;;4851192;29;20078;-75
2022/07/10 14:53:11;;;;;;;1.98;0.40;;;39.50;39.70;;;;;;4852575;29;20038;-74
2022/07/10 14:55:37;;;;;;;1.73;0.38;;;40.20;38.90;;;;;;4853822;29;20350;-74
2022/07/10 14:58:02;;;;;;;1.48;0.30;;;40.20;38.80;;;;;;4854844;29;20041;-75
2022/07/10 15:00:28;;;;;;;1.50;0.40;;;40.50;38.40;;;;;;4875268;29;20119;-76
2022/07/10 15:02:54;;;;;;;2.17;0.65;;;40.40;38.10;;;;;;4889216;29;20057;-74
2022/07/10 15:05:20;;;;;;;2.30;0.47;;;40.80;38.80;;;;;;4889607;29;20032;-75
2022/07/10 15:07:45;;;;;;;1.58;0.30;;;40.30;38.20;;;;;;4888743;29;20036;-73
2022/07/10 15:10:12;;;;;;;3.53;0.40;;;40.30;38.00;;;;;;4889184;29;20105;-74
2022/07/10 15:12:38;;;;;;;2.50;0.60;;;40.00;38.00;;;;;;4889047;29;20039;-76
2022/07/10 15:15:10;;;;;;;1.77;0.25;;;39.90;38.30;;;;;;4889395;29;20061;-76
2022/07/10 15:17:36;;;;;;;1.48;0.30;;;40.10;38.30;;;;;;4872316;29;20038;-76
2022/07/10 15:20:04;;;;;;;1.95;0.35;;;40.30;38.60;;;;;;4871350;29;20048;-76
2022/07/10 15:22:31;;;;;;;1.33;0.35;;;40.70;38.30;;;;;;4855706;29;20049;-75
2022/07/10 15:24:57;;;;;;;2.47;0.30;;;40.20;38.40;;;;;;4870441;29;20045;-78
2022/07/10 15:27:22;;;;;;;1.63;0.38;;;40.70;37.70;;;;;;4871300;29;20037;-76
2022/07/10 15:29:48;;;;;;;2.33;0.32;;;40.00;38.00;;;;;;4869891;29;20036;-75
2022/07/10 15:32:14;;;;;;;2.60;0.20;;;40.30;37.60;;;;;;4870902;29;20041;-73
2022/07/10 15:34:40;;;;;;;2.70;0.30;;;40.90;37.30;;;;;;4869766;29;20327;-74
2022/07/10 15:37:06;;;;;;;2.15;0.30;;;40.50;37.30;;;;;;4870810;29;20045;-75
2022/07/10 15:39:41;;;;;;;2.47;0.40;;;40.00;37.40;;;;;;4870440;29;20061;-74
2022/07/10 15:42:13;;;;;;;1.27;0.30;;;40.20;37.40;;;;;;4870438;29;20043;-74
2022/07/10 15:44:41;;;;;;;1.50;0.30;;;40.30;37.80;;;;;;4869533;29;20124;-75
2022/07/10 15:47:08;;;;;;;2.40;0.40;;;40.90;37.80;;;;;;4853592;29;20319;-73
2022/07/10 15:49:37;;;;;;;2.22;0.40;;;41.10;37.30;;;;;;4869973;29;20060;-74
2022/07/10 15:52:03;;;;;;;2.92;0.30;;;42.20;37.00;;;;;;4870092;29;20054;-74
2022/07/10 15:54:29;;;;;;;1.73;0.30;;;41.80;36.90;;;;;;4870637;29;20068;-74
2022/07/10 15:56:55;;;;;;;2.03;0.40;;;42.40;36.60;;;;;;4868897;29;20042;-74
2022/07/10 15:59:25;;;;;;;2.45;0.40;;;41.70;37.00;;;;;;4852084;29;20025;-73
2022/07/10 16:01:52;;;;;;;1.98;0.35;;;41.40;37.10;;;;;;4840240;29;20088;-73
2022/07/10 16:04:18;;;;;;;1.35;0.20;;;42.10;37.00;;;;;;4889115;29;20056;-73
2022/07/10 16:06:44;;;;;;;1.73;0.30;;;41.30;36.60;;;;;;4889111;29;20091;-73
2022/07/10 16:09:10;;;;;;;1.13;0.28;;;41.20;36.80;;;;;;4892781;29;20029;-74
2022/07/10 16:11:36;;;;;;;1.48;0.40;;;41.70;36.80;;;;;;4892942;29;20089;-74
2022/07/10 16:14:02;;;;;;;1.67;0.40;;;41.80;36.70;;;;;;4892033;29;20057;-73
2022/07/10 16:16:27;;;;;;;1.63;0.40;;;41.10;36.80;;;;;;4891564;29;20112;-73
2022/07/10 16:18:53;;;;;;;1.92;0.30;;;41.50;36.90;;;;;;4874857;29;20040;-74
2022/07/10 16:21:20;;;;;;;1.23;0.30;;;41.80;36.80;;;;;;4891881;29;20029;-73
2022/07/10 16:23:46;;;;;;;1.83;0.60;;;41.80;36.70;;;;;;4892585;29;20036;-74
2022/07/10 16:26:12;;;;;;;1.85;0.40;;;39.90;36.90;;;;;;4893470;29;20439;-75
2022/07/10 16:28:38;;;;;;;1.85;0.32;;;36.90;38.60;;;;;;4893992;29;20161;-73
2022/07/10 16:31:04;;;;;;;1.83;0.40;;;34.90;40.30;;;;;;4891123;29;20259;-75
2022/07/10 16:33:31;;;;;;;1.90;0.50;;;32.90;42.00;;;;;;4891483;29;20040;-75
2022/07/10 16:35:57;;;;;;;1.33;0.20;;;31.70;44.30;;;;;;4891233;29;20066;-72
2022/07/10 16:38:23;;;;;;;1.95;0.30;;;32.50;42.80;;;;;;4891904;29;20060;-74
2022/07/10 16:40:49;;;;;;;3.35;0.82;;;34.70;41.40;;;;;;4891161;29;20345;-75
2022/07/10 16:43:15;;;;;;;2.45;0.55;;;36.00;40.60;;;;;;4891495;29;20196;-72
2022/07/10 16:45:42;;;;;;;1.88;0.40;;;34.90;40.50;;;;;;4890000;29;20117;-73
2022/07/10 16:48:08;;;;;;;3.33;0.50;;;33.60;41.40;;;;;;4890960;29;20083;-73
2022/07/10 16:50:34;;;;;;;1.77;0.32;;;31.90;42.90;;;;;;4891548;29;20032;-73
2022/07/10 16:53:01;;;;;;;2.00;0.32;;;32.60;43.10;;;;;;4891207;29;20029;-74
2022/07/10 16:55:27;;;;;;;1.40;0.32;;;33.00;42.60;;;;;;4892046;29;20044;-74
2022/07/10 16:57:53;;;;;;;1.88;0.50;;;33.70;42.20;;;;;;4890544;29;20223;-74
2022/07/10 17:00:20;;;;;;;2.90;0.50;;;32.60;42.40;;;;;;4890016;29;20044;-73
2022/07/10 17:02:45;;;;;;;2.72;0.50;;;32.30;43.50;;;;;;4890915;29;20068;-73
2022/07/10 17:05:11;;;;;;;4.25;0.47;;;32.60;42.80;;;;;;4891603;29;20096;-73
2022/07/10 17:07:38;;;;;;;1.85;0.30;;;32.90;42.60;;;;;;4878045;29;20038;-73
2022/07/10 17:10:05;;;;;;;2.20;0.30;;;33.50;42.20;;;;;;4880202;29;20021;-74
2022/07/10 17:12:31;;;;;;;1.98;0.30;;;32.10;43.10;;;;;;4882753;29;20048;-73
2022/07/10 17:14:57;;;;;;;3.00;0.65;;;30.20;44.90;;;;;;4883204;29;20037;-74
2022/07/10 17:17:23;;;;;;;2.95;0.45;;;28.90;47.00;;;;;;4884464;29;20319;-73
2022/07/10 17:19:51;;;;;;;3.88;0.93;;;28.70;47.30;;;;;;4880946;29;20134;-74
2022/07/10 17:22:19;;;;;;;4.25;0.80;;;28.30;47.90;;;;;;4872877;29;20331;-73
2022/07/10 17:24:44;;;;;;;1.98;0.40;;;27.70;48.70;;;;;;4871541;29;20029;-75
2022/07/10 17:27:10;;;;;;;4.72;0.50;;;27.00;49.30;;;;;;4871922;29;20037;-74
2022/07/10 17:29:36;;;;;;;2.55;0.65;;;26.50;50.20;;;;;;4864701;29;20044;-78
2022/07/10 17:32:02;;;;;;;3.72;0.60;;;25.80;51.50;;;;;;4872252;29;20071;-78
2022/07/10 17:34:28;;;;;;;3.08;0.50;;;25.30;52.20;;;;;;4890584;29;20295;-73
2022/07/10 17:36:54;;;;;;;3.90;0.60;;;25.00;53.10;;;;;;4890125;29;20100;-72
2022/07/10 17:39:20;;;;;;;3.83;0.50;;;24.80;53.10;;;;;;4890530;29;20041;-74
2022/07/10 17:41:46;;;;;;;2.70;0.45;;;24.40;53.60;;;;;;4890128;29;20032;-73
2022/07/10 17:44:11;;;;;;;4.70;0.68;;;24.30;53.80;;;;;;4890425;29;20033;-75
2022/07/10 17:46:37;;;;;;;3.70;0.80;;;24.00;54.00;;;;;;4890008;29;20068;-75
2022/07/10 17:49:03;;;;;;;2.38;0.50;;;23.80;55.00;;;;;;4872902;29;20149;-74
2022/07/10 17:51:32;;;;;;;2.58;0.70;;;23.90;55.10;;;;;;4890128;29;20356;-74
2022/07/10 17:53:57;;;;;;;;;;;23.90;55.20;;;;;;4889951;29;20077;-74
2022/07/10 17:56:23;;;;;;;3.00;0.80;;;23.80;54.90;;;;;;4890157;29;19907;-76
2022/07/10 17:58:54;;;;;;;3.17;0.70;;;23.70;54.90;;;;;;4889480;29;20276;-79
2022/07/10 18:01:38;;;;;;;2.78;0.85;;;23.50;55.50;;;;;;4887376;29;20076;-80
2022/07/10 18:04:14;;;;;;;2.63;0.57;;;23.40;55.90;;;;;;4888351;29;20033;-79
2022/07/10 18:07:08;;;;;;;2.67;0.73;;;23.40;56.20;;;;;;4888435;29;20040;-79